Time;durP1;ratioP1;P1;durP2;ratioP2;P2;SDS_P1;SDS_P2;PMS_P1;PMS_P2;Temp;Humidity;BMP_temperature;BMP_pressure;BME280_temperature;BME280_humidity;BME280_pressure;Samples;Min_cycle;Max_cycle;Signal;HPM_P1;HPM_P2
2022/12/25 00:01:43;;;;;;;10.90;9.30;;;5.00;99.90;;;;;;5073065;28;20520;-49
2022/12/25 00:04:10;;;;;;;10.10;9.10;;;5.10;99.90;;;;;;5073450;28;20479;-49
2022/12/25 00:06:37;;;;;;;11.50;7.93;;;5.20;99.90;;;;;;5073381;28;20898;-50
2022/12/25 00:09:04;;;;;;;7.67;4.97;;;5.20;99.90;;;;;;5074596;28;20578;-48
2022/12/25 00:11:31;;;;;;;5.10;4.23;;;5.20;99.90;;;;;;5075139;28;20703;-49
2022/12/25 00:13:58;;;;;;;5.67;4.00;;;5.30;99.90;;;;;;5074681;28;20531;-48
2022/12/25 00:16:27;;;;;;;4.53;4.13;;;5.40;99.90;;;;;;5074616;28;20553;-49
2022/12/25 00:18:57;;;;;;;5.70;5.10;;;5.40;99.90;;;;;;5074691;28;20956;-50
2022/12/25 00:21:25;;;;;;;5.30;4.80;;;5.40;99.90;;;;;;5074445;28;20543;-49
2022/12/25 00:23:54;;;;;;;5.17;4.67;;;5.20;99.90;;;;;;5074210;28;20480;-48
2022/12/25 00:26:21;;;;;;;5.20;4.70;;;4.90;99.90;;;;;;5074669;28;20444;-49
2022/12/25 00:28:51;;;;;;;9.57;5.00;;;4.90;99.90;;;;;;5074563;28;20511;-48
2022/12/25 00:31:18;;;;;;;3.90;3.53;;;5.00;99.90;;;;;;5074363;28;20546;-49
2022/12/25 00:33:48;;;;;;;6.23;3.60;;;5.00;99.90;;;;;;5074283;28;20513;-49
2022/12/25 00:36:16;;;;;;;3.00;2.70;;;5.10;99.90;;;;;;5074706;28;20443;-51
2022/12/25 00:38:45;;;;;;;3.30;2.60;;;5.10;99.90;;;;;;5074060;28;20471;-49
2022/12/25 00:41:14;;;;;;;2.57;2.17;;;5.20;99.90;;;;;;5074511;28;20514;-49
2022/12/25 00:43:42;;;;;;;4.20;3.03;;;5.20;99.90;;;;;;5073509;28;21097;-49
2022/12/25 00:46:11;;;;;;;4.07;2.73;;;5.20;99.90;;;;;;5072631;28;20475;-49
2022/12/25 00:48:39;;;;;;;6.90;4.67;;;5.20;99.90;;;;;;5072811;28;20515;-49
2022/12/25 00:51:10;;;;;;;5.00;4.50;;;5.20;99.90;;;;;;5072412;28;20553;-51
2022/12/25 00:53:37;;;;;;;7.33;4.60;;;4.80;99.90;;;;;;5072522;28;20490;-48
2022/12/25 00:56:06;;;;;;;6.60;4.47;;;4.80;99.90;;;;;;5072452;28;20991;-50
2022/12/25 00:58:35;;;;;;;5.13;4.60;;;4.80;99.90;;;;;;5073024;28;20622;-48
2022/12/25 01:01:02;;;;;;;4.53;4.10;;;4.80;99.90;;;;;;5073661;28;20988;-49
2022/12/25 01:03:29;;;;;;;4.73;3.83;;;5.00;99.90;;;;;;5072002;28;20494;-51
2022/12/25 01:05:58;;;;;;;5.90;5.00;;;5.00;99.90;;;;;;5072538;28;20531;-49
2022/12/25 01:08:26;;;;;;;5.20;4.10;;;5.00;99.90;;;;;;5072207;28;20567;-49
2022/12/25 01:10:54;;;;;;;4.63;4.23;;;5.00;99.90;;;;;;5071795;28;20501;-49
2022/12/25 01:13:21;;;;;;;5.60;5.17;;;5.00;99.90;;;;;;5071727;28;20447;-50
2022/12/25 01:15:48;;;;;;;4.70;3.90;;;5.00;99.90;;;;;;5071709;28;20934;-48
2022/12/25 01:18:15;;;;;;;4.50;4.10;;;5.00;99.90;;;;;;5072120;28;20517;-49
2022/12/25 01:20:42;;;;;;;3.50;3.20;;;5.00;99.90;;;;;;5073812;28;20497;-48
2022/12/25 01:23:09;;;;;;;4.10;3.70;;;5.10;99.90;;;;;;5073192;28;20524;-48
2022/12/25 01:25:37;;;;;;;3.47;2.60;;;5.30;99.90;;;;;;5071836;28;20531;-48
2022/12/25 01:28:04;;;;;;;1.83;1.70;;;5.10;99.90;;;;;;5071857;28;20552;-50
2022/12/25 01:30:31;;;;;;;2.97;2.70;;;5.40;99.90;;;;;;5071709;28;20542;-49
2022/12/25 01:32:59;;;;;;;5.77;3.60;;;5.40;99.90;;;;;;5071243;28;20470;-51
2022/12/25 01:35:26;;;;;;;4.90;3.83;;;5.30;99.90;;;;;;5071830;28;20474;-48
2022/12/25 01:37:53;;;;;;;7.43;3.87;;;5.20;99.90;;;;;;5071249;28;21041;-50
2022/12/25 01:40:20;;;;;;;6.50;3.17;;;5.10;99.90;;;;;;5071881;28;21004;-48
2022/12/25 01:42:48;;;;;;;3.63;3.33;;;5.20;99.90;;;;;;5072916;28;20525;-49
2022/12/25 01:45:43;;;;;;;5.50;3.90;;;5.20;99.90;;;;;;5073001;28;20533;-48
2022/12/25 01:48:18;;;;;;;4.43;3.60;;;5.10;99.90;;;;;;5037658;28;20557;-49
2022/12/25 01:50:49;;;;;;;3.53;3.20;;;5.10;99.90;;;;;;5072904;28;20494;-49
2022/12/25 01:53:17;;;;;;;3.50;3.13;;;5.10;99.90;;;;;;5071729;28;20446;-49
2022/12/25 01:55:45;;;;;;;3.50;3.20;;;5.20;99.90;;;;;;5073254;28;20530;-49
2022/12/25 01:58:13;;;;;;;6.27;2.50;;;5.20;99.90;;;;;;5072157;28;20482;-48
2022/12/25 02:00:40;;;;;;;3.70;2.70;;;5.20;99.90;;;;;;5071942;28;20505;-51
2022/12/25 02:03:07;;;;;;;3.77;3.40;;;5.20;99.90;;;;;;5071609;28;20943;-49
2022/12/25 02:05:35;;;;;;;3.13;2.87;;;5.10;99.90;;;;;;5070801;28;20486;-48
2022/12/25 02:08:06;;;;;;;2.63;2.43;;;5.20;99.90;;;;;;5070306;28;20549;-49
2022/12/25 02:10:33;;;;;;;2.87;2.33;;;5.30;99.90;;;;;;5071090;28;20624;-49
2022/12/25 02:13:01;;;;;;;2.23;2.03;;;5.30;99.90;;;;;;5070845;28;20531;-49
2022/12/25 02:15:39;;;;;;;1.90;1.70;;;5.30;99.90;;;;;;5069311;28;20543;-49
2022/12/25 02:18:11;;;;;;;2.10;1.33;;;5.10;99.90;;;;;;5068935;28;20533;-48
2022/12/25 02:21:03;;;;;;;2.30;1.47;;;5.20;99.90;;;;;;5074039;28;20551;-49
2022/12/25 02:23:55;;;;;;;1.70;1.10;;;5.20;99.90;;;;;;5080235;28;20475;-50
2022/12/25 02:26:54;;;;;;;1.33;1.20;;;5.20;99.90;;;;;;5080976;28;20873;-49
2022/12/25 02:29:27;;;;;;;1.63;1.03;;;4.70;99.90;;;;;;5069369;28;20512;-50
2022/12/25 02:31:59;;;;;;;2.30;1.80;;;4.80;99.90;;;;;;5078134;28;20528;-51
2022/12/25 02:34:32;;;;;;;2.27;1.60;;;4.70;99.90;;;;;;5082731;28;20498;-49
2022/12/25 02:37:06;;;;;;;3.57;2.47;;;4.60;99.90;;;;;;5068935;28;20486;-48
2022/12/25 02:39:57;;;;;;;2.63;2.30;;;4.60;99.90;;;;;;5070365;28;20446;-49
2022/12/25 03:07:59;;;;;;;67.03;11.87;;;4.70;99.90;;;;;;5049887;28;20497;-48
2022/12/25 03:13:18;;;;;;;7.60;4.83;;;4.20;99.90;;;;;;5054082;28;20963;-49
2022/12/25 03:18:32;;;;;;;3.23;2.47;;;4.50;99.90;;;;;;5069636;28;20435;-50
2022/12/25 03:32:08;;;;;;;51.67;12.97;;;4.40;99.90;;;;;;5069637;28;20476;-50
2022/12/25 04:36:18;;;;;;;26.40;8.00;;;4.60;99.90;;;;;;5068576;28;20480;-50
2022/12/25 04:38:45;;;;;;;17.53;6.07;;;4.70;99.90;;;;;;5070325;28;20473;-49
2022/12/25 04:41:14;;;;;;;15.00;4.83;;;4.60;99.90;;;;;;5072105;28;20554;-49
2022/12/25 04:43:41;;;;;;;5.47;4.87;;;4.60;99.90;;;;;;5072682;28;21000;-48
2022/12/25 04:46:08;;;;;;;4.57;3.53;;;4.70;99.90;;;;;;5073711;28;20880;-49
2022/12/25 04:48:36;;;;;;;5.20;3.93;;;4.70;99.90;;;;;;5073883;28;20451;-49
2022/12/25 04:51:17;;;;;;;3.07;2.70;;;4.70;99.90;;;;;;5073545;28;20460;-51
2022/12/25 04:53:45;;;;;;;3.80;2.80;;;4.80;99.90;;;;;;5073942;28;20464;-49
2022/12/25 04:56:13;;;;;;;16.20;4.10;;;4.80;99.90;;;;;;5073385;28;20524;-48
2022/12/25 04:58:41;;;;;;;8.83;6.00;;;4.70;99.90;;;;;;5072749;28;20885;-51
2022/12/25 05:01:08;;;;;;;34.20;7.70;;;4.80;99.90;;;;;;5071430;28;20917;-49
2022/12/25 05:03:35;;;;;;;16.83;6.00;;;4.60;99.90;;;;;;5071642;28;20472;-48
2022/12/25 05:06:03;;;;;;;7.57;6.07;;;4.40;99.90;;;;;;5071782;28;20488;-49
2022/12/25 05:08:31;;;;;;;6.10;5.50;;;4.50;99.90;;;;;;5072085;28;20916;-49
2022/12/25 05:10:58;;;;;;;6.37;4.53;;;4.40;99.90;;;;;;5071879;28;20521;-49
2022/12/25 05:13:26;;;;;;;11.50;4.47;;;4.60;99.90;;;;;;5071626;28;20540;-49
2022/12/25 05:15:53;;;;;;;15.57;6.03;;;4.70;99.90;;;;;;5072849;28;20539;-49
2022/12/25 05:18:20;;;;;;;29.23;4.40;;;4.70;99.90;;;;;;5073110;28;20526;-48
2022/12/25 05:20:52;;;;;;;24.10;5.70;;;4.60;99.90;;;;;;5073281;28;20982;-49
2022/12/25 05:23:19;;;;;;;46.50;8.73;;;4.60;99.90;;;;;;5073411;28;20446;-48
2022/12/25 05:25:46;;;;;;;77.10;10.80;;;4.40;99.90;;;;;;5073201;28;20843;-49
2022/12/25 05:28:13;;;;;;;59.97;8.80;;;4.50;99.90;;;;;;5071659;28;20528;-48
2022/12/25 05:30:42;;;;;;;39.03;6.73;;;4.40;99.90;;;;;;5071508;28;20558;-49
2022/12/25 05:33:09;;;;;;;101.37;10.73;;;4.30;99.90;;;;;;5071206;28;20470;-50
2022/12/25 05:35:37;;;;;;;95.40;9.47;;;4.20;99.90;;;;;;5070959;28;20471;-49
2022/12/25 05:38:04;;;;;;;10.80;3.90;;;4.10;99.90;;;;;;5070923;28;20529;-49
2022/12/25 05:40:31;;;;;;;73.03;8.93;;;4.10;99.90;;;;;;5071035;28;20499;-48
2022/12/25 05:42:58;;;;;;;68.47;8.87;;;4.10;99.90;;;;;;5072439;28;20536;-49
2022/12/25 05:45:25;;;;;;;114.40;11.37;;;4.10;99.90;;;;;;5072404;28;20538;-49
2022/12/25 05:47:54;;;;;;;105.97;11.30;;;4.00;99.90;;;;;;5072610;28;20527;-49
2022/12/25 05:50:20;;;;;;;75.63;8.83;;;3.80;99.90;;;;;;5072013;28;20510;-50
2022/12/25 05:52:47;;;;;;;40.60;7.50;;;3.80;99.90;;;;;;5072705;28;20530;-49
2022/12/25 05:55:14;;;;;;;44.17;6.73;;;3.80;99.90;;;;;;5072416;28;20539;-49
2022/12/25 05:57:41;;;;;;;11.23;4.40;;;3.90;99.90;;;;;;5052652;28;20483;-48
2022/12/25 06:00:09;;;;;;;24.33;5.20;;;4.10;99.90;;;;;;5063193;28;20504;-49
2022/12/25 06:02:36;;;;;;;21.97;5.13;;;4.30;99.90;;;;;;5075395;28;20947;-49
2022/12/25 06:05:05;;;;;;;51.07;7.03;;;4.20;99.90;;;;;;5074990;28;20467;-50
2022/12/25 06:07:32;;;;;;;17.03;3.83;;;4.00;99.90;;;;;;5080532;28;20475;-51
2022/12/25 06:09:59;;;;;;;18.43;4.10;;;4.00;99.90;;;;;;5076537;28;20914;-50
2022/12/25 06:12:26;;;;;;;9.50;3.60;;;4.10;99.90;;;;;;5077219;28;20468;-50
2022/12/25 06:14:53;;;;;;;19.50;4.70;;;4.20;99.90;;;;;;5079600;28;20531;-49
2022/12/25 06:17:20;;;;;;;16.70;4.40;;;4.30;99.90;;;;;;5076572;28;20478;-50
2022/12/25 06:19:46;;;;;;;5.70;2.77;;;4.40;99.90;;;;;;5079142;28;20462;-49
2022/12/25 06:22:15;;;;;;;15.73;3.53;;;4.30;99.90;;;;;;5082292;28;20910;-49
2022/12/25 06:24:42;;;;;;;15.83;4.70;;;4.10;99.90;;;;;;5080013;28;20475;-49
2022/12/25 06:27:09;;;;;;;7.40;3.30;;;4.00;99.90;;;;;;5077975;28;20438;-50
2022/12/25 06:29:36;;;;;;;15.73;4.77;;;4.00;99.90;;;;;;5079211;28;21014;-49
2022/12/25 06:32:02;;;;;;;5.73;3.10;;;3.90;99.90;;;;;;5078769;28;20566;-49
2022/12/25 06:34:29;;;;;;;10.07;3.00;;;4.10;99.90;;;;;;5079662;28;20503;-49
2022/12/25 06:36:56;;;;;;;18.40;4.87;;;4.00;99.90;;;;;;5076083;28;20529;-51
2022/12/25 06:39:25;;;;;;;23.70;5.47;;;4.00;99.90;;;;;;5078139;28;20893;-51
2022/12/25 06:41:51;;;;;;;10.43;3.43;;;4.10;99.90;;;;;;5078237;28;20471;-50
2022/12/25 06:44:18;;;;;;;20.83;4.93;;;4.10;99.90;;;;;;5076586;28;20480;-50
2022/12/25 06:46:45;;;;;;;32.63;7.00;;;4.10;99.90;;;;;;5075795;28;20467;-50
2022/12/25 06:49:12;;;;;;;17.80;6.30;;;4.00;99.90;;;;;;5078986;28;20523;-51
2022/12/25 06:51:39;;;;;;;53.33;7.17;;;4.00;99.90;;;;;;5078748;28;20549;-50
2022/12/25 06:54:06;;;;;;;32.23;8.97;;;3.80;99.90;;;;;;5079320;28;20532;-49
2022/12/25 06:56:34;;;;;;;21.60;5.03;;;3.70;99.90;;;;;;5079621;28;20530;-49
2022/12/25 06:59:03;;;;;;;36.70;7.73;;;3.80;99.90;;;;;;5079105;28;20486;-49
2022/12/25 07:01:33;;;;;;;25.33;6.93;;;3.60;99.90;;;;;;5078416;28;20883;-48
2022/12/25 07:04:03;;;;;;;5.87;4.33;;;3.60;99.90;;;;;;5081826;28;20524;-48
2022/12/25 07:06:30;;;;;;;43.90;8.53;;;3.70;99.90;;;;;;5077614;28;20904;-49
2022/12/25 07:08:57;;;;;;;11.10;5.60;;;3.40;99.90;;;;;;5080632;28;20514;-50
2022/12/25 07:11:24;;;;;;;11.27;5.10;;;3.20;99.90;;;;;;5077124;28;20504;-49
2022/12/25 07:13:53;;;;;;;9.93;5.03;;;3.30;99.90;;;;;;5079709;28;20477;-51
2022/12/25 07:16:20;;;;;;;16.87;6.40;;;3.40;99.90;;;;;;5072586;28;20521;-53
2022/12/25 07:18:46;;;;;;;15.47;6.47;;;3.30;99.90;;;;;;5076454;28;20537;-50
2022/12/25 07:21:15;;;;;;;25.47;8.10;;;3.30;99.90;;;;;;5080523;28;20536;-50
2022/12/25 07:23:44;;;;;;;27.70;6.70;;;3.10;99.90;;;;;;5081927;28;20498;-50
2022/12/25 07:26:12;;;;;;;29.33;6.70;;;3.10;99.90;;;;;;5080634;28;20536;-50
2022/12/25 07:28:39;;;;;;;76.27;12.07;;;3.20;99.90;;;;;;5075316;28;20531;-51
2022/12/25 07:31:11;;;;;;;29.53;7.30;;;3.00;99.90;;;;;;5076393;28;20560;-49
2022/12/25 07:33:38;;;;;;;16.23;5.33;;;3.10;99.90;;;;;;5078440;28;20463;-48
2022/12/25 07:36:06;;;;;;;51.73;9.60;;;3.20;99.90;;;;;;5072518;28;20490;-53
2022/12/25 07:38:33;;;;;;;40.33;9.07;;;3.20;99.90;;;;;;5079123;28;20448;-53
2022/12/25 07:41:00;;;;;;;50.57;9.03;;;3.10;99.90;;;;;;5077644;28;20513;-52
2022/12/25 07:43:27;;;;;;;11.00;5.17;;;3.20;99.90;;;;;;5080709;28;20524;-52
2022/12/25 07:45:56;;;;;;;42.30;10.00;;;3.20;99.90;;;;;;5077142;28;20481;-51
2022/12/25 07:48:25;;;;;;;51.60;11.30;;;3.20;99.90;;;;;;5081455;28;20441;-52
2022/12/25 07:50:57;;;;;;;39.20;10.63;;;3.00;99.90;;;;;;5080787;28;20510;-53
2022/12/25 07:53:23;;;;;;;19.43;9.10;;;3.20;99.90;;;;;;5080334;28;20476;-51
2022/12/25 07:55:57;;;;;;;69.97;12.30;;;3.40;99.90;;;;;;5073592;28;20524;-53
2022/12/25 07:58:24;;;;;;;28.67;9.27;;;3.00;99.90;;;;;;5080239;28;20519;-51
2022/12/25 08:00:50;;;;;;;34.90;14.13;;;3.00;99.90;;;;;;5074137;28;20488;-54
2022/12/25 08:03:17;;;;;;;64.40;14.27;;;3.10;99.90;;;;;;5069162;28;20964;-52
2022/12/25 08:05:46;;;;;;;29.33;8.80;;;2.90;99.90;;;;;;5068732;28;20518;-52
2022/12/25 08:08:13;;;;;;;18.60;7.67;;;3.10;99.90;;;;;;5073904;28;20472;-53
2022/12/25 08:10:45;;;;;;;19.33;8.60;;;3.20;99.90;;;;;;5079606;28;20770;-51
2022/12/25 08:13:12;;;;;;;16.70;8.90;;;3.40;99.90;;;;;;5080376;28;20473;-51
2022/12/25 08:15:39;;;;;;;51.87;10.27;;;3.50;99.90;;;;;;5070326;28;20545;-52
2022/12/25 08:18:06;;;;;;;50.90;10.13;;;3.50;99.90;;;;;;5070624;28;21007;-54
2022/12/25 08:20:34;;;;;;;40.07;9.50;;;3.30;99.90;;;;;;5071086;28;20576;-52
2022/12/25 08:23:03;;;;;;;10.57;7.00;;;3.00;99.90;;;;;;5071114;28;20486;-52
2022/12/25 08:25:30;;;;;;;28.27;9.77;;;3.10;99.90;;;;;;5071151;28;20469;-53
2022/12/25 08:28:00;;;;;;;56.47;10.37;;;3.20;99.90;;;;;;5073013;28;20481;-53
2022/12/25 08:30:27;;;;;;;53.07;11.50;;;2.90;99.90;;;;;;5070680;28;20564;-52
2022/12/25 08:32:54;;;;;;;22.07;10.00;;;2.80;99.90;;;;;;5070623;28;20900;-54
2022/12/25 08:35:20;;;;;;;28.63;9.20;;;3.00;99.90;;;;;;5069437;28;20533;-54
2022/12/25 08:37:47;;;;;;;14.87;8.40;;;3.10;99.90;;;;;;5069338;28;20473;-52
2022/12/25 08:40:16;;;;;;;34.70;10.67;;;3.00;99.90;;;;;;5068822;28;20558;-53
2022/12/25 08:42:43;;;;;;;16.70;7.73;;;3.00;99.90;;;;;;5069537;28;20580;-51
2022/12/25 08:45:11;;;;;;;19.33;8.10;;;3.10;99.90;;;;;;5072841;28;20522;-52
2022/12/25 08:47:38;;;;;;;53.10;10.77;;;3.00;99.90;;;;;;5081235;28;20450;-53
2022/12/25 08:50:06;;;;;;;21.17;9.47;;;3.00;99.90;;;;;;5070162;28;20580;-53
2022/12/25 08:52:33;;;;;;;26.93;11.60;;;3.00;99.90;;;;;;5070899;28;20484;-53
2022/12/25 08:55:00;;;;;;;31.27;12.23;;;3.00;99.90;;;;;;5070284;28;20983;-53
2022/12/25 08:57:28;;;;;;;36.50;12.87;;;3.00;99.90;;;;;;5070761;28;20522;-52
2022/12/25 08:59:55;;;;;;;19.63;9.10;;;2.90;99.90;;;;;;5059482;28;20477;-52
2022/12/25 09:02:22;;;;;;;15.33;8.73;;;3.00;99.90;;;;;;5069468;28;20476;-52
2022/12/25 09:04:48;;;;;;;24.90;9.50;;;3.00;99.90;;;;;;5063928;28;20533;-54
2022/12/25 09:07:15;;;;;;;20.47;11.20;;;2.70;99.90;;;;;;5071435;28;20937;-53
2022/12/25 09:09:42;;;;;;;31.57;15.77;;;2.70;99.90;;;;;;5080475;28;20733;-51
2022/12/25 09:12:09;;;;;;;14.40;9.83;;;2.60;99.90;;;;;;5064490;28;20498;-51
2022/12/25 09:14:37;;;;;;;17.20;8.80;;;2.50;99.90;;;;;;5068302;28;20483;-52
2022/12/25 09:17:04;;;;;;;16.60;8.63;;;2.30;99.90;;;;;;5078507;28;20476;-51
2022/12/25 09:19:31;;;;;;;10.03;8.90;;;2.10;99.90;;;;;;5071720;28;20987;-52
2022/12/25 09:21:58;;;;;;;10.73;7.87;;;2.40;99.90;;;;;;5070521;28;20485;-54
2022/12/25 09:24:25;;;;;;;22.60;13.10;;;2.60;99.90;;;;;;5069510;28;20475;-52
2022/12/25 09:26:52;;;;;;;37.30;18.47;;;2.70;99.90;;;;;;5068760;28;20524;-52
2022/12/25 09:29:19;;;;;;;33.97;17.10;;;2.50;99.90;;;;;;5069733;28;20524;-51
2022/12/25 09:31:47;;;;;;;57.07;28.10;;;2.60;99.90;;;;;;5069500;28;20551;-52
2022/12/25 09:34:14;;;;;;;88.47;24.10;;;2.70;99.90;;;;;;5069111;28;20526;-51
2022/12/25 09:36:41;;;;;;;72.87;21.63;;;2.60;99.90;;;;;;5070393;28;20888;-54
2022/12/25 09:39:08;;;;;;;19.83;16.77;;;2.40;99.90;;;;;;5068572;28;20546;-52
2022/12/25 09:41:40;;;;;;;38.63;25.70;;;2.70;99.90;;;;;;5068359;28;20505;-54
2022/12/25 09:44:10;;;;;;;26.73;21.60;;;2.80;99.90;;;;;;5070346;28;20481;-54
2022/12/25 09:46:41;;;;;;;70.53;29.40;;;2.90;99.90;;;;;;5073923;28;20531;-53
2022/12/25 09:49:19;;;;;;;18.60;14.60;;;3.10;99.90;;;;;;5069344;28;20530;-52
2022/12/25 09:51:49;;;;;;;32.07;20.50;;;2.90;99.90;;;;;;5068637;28;20485;-54
2022/12/25 09:54:20;;;;;;;43.07;17.67;;;2.80;99.90;;;;;;5068432;28;20523;-52
2022/12/25 09:56:47;;;;;;;64.93;18.13;;;3.00;99.90;;;;;;5070201;28;20450;-54
2022/12/25 09:59:22;;;;;;;133.47;26.93;;;2.70;99.90;;;;;;5069706;28;20531;-51
2022/12/25 10:02:04;;;;;;;250.90;33.23;;;2.60;99.90;;;;;;5070039;28;20561;-52
2022/12/25 10:04:46;;;;;;;44.33;17.13;;;2.40;99.90;;;;;;5068784;28;20528;-52
2022/12/25 10:07:18;;;;;;;31.13;11.53;;;2.30;99.90;;;;;;5069171;28;20532;-52
2022/12/25 10:09:57;;;;;;;206.33;26.53;;;2.70;99.90;;;;;;5068826;28;20532;-51
2022/12/25 10:12:37;;;;;;;368.33;37.53;;;2.50;99.90;;;;;;5068873;28;21024;-51
2022/12/25 10:15:28;;;;;;;271.77;28.53;;;2.50;99.90;;;;;;5069441;28;20456;-52
2022/12/25 10:18:07;;;;;;;48.53;10.80;;;2.60;99.90;;;;;;5077594;28;20460;-52
2022/12/25 10:20:43;;;;;;;38.67;9.37;;;2.70;99.90;;;;;;5069228;28;20504;-52
2022/12/25 10:23:15;;;;;;;56.63;11.77;;;3.00;99.90;;;;;;5064159;28;20453;-55
2022/12/25 10:25:44;;;;;;;178.60;18.53;;;3.20;99.90;;;;;;5067892;28;20480;-52
2022/12/25 10:28:14;;;;;;;186.57;26.03;;;3.20;99.90;;;;;;5068410;28;20856;-52
2022/12/25 10:30:43;;;;;;;71.13;11.97;;;3.00;99.90;;;;;;5069065;28;20492;-52
2022/12/25 10:33:13;;;;;;;82.23;14.40;;;3.20;99.90;;;;;;5068695;28;20722;-51
2022/12/25 10:35:41;;;;;;;71.83;10.80;;;3.30;99.90;;;;;;5067361;28;20763;-51
2022/12/25 10:38:13;;;;;;;25.73;8.50;;;3.50;99.90;;;;;;5068669;28;20437;-51
2022/12/25 10:40:59;;;;;;;9.63;6.43;;;3.60;99.90;;;;;;5068468;28;20469;-50
2022/12/25 10:43:32;;;;;;;8.40;5.80;;;3.80;99.90;;;;;;5068285;28;20968;-50
2022/12/25 10:45:59;;;;;;;18.67;6.90;;;4.00;99.90;;;;;;5076005;28;20988;-50
2022/12/25 10:48:29;;;;;;;10.27;6.23;;;4.00;99.90;;;;;;5061910;28;20499;-51
2022/12/25 10:50:57;;;;;;;43.47;11.37;;;4.10;99.90;;;;;;5066034;28;20511;-51
2022/12/25 10:53:26;;;;;;;49.90;11.40;;;4.20;99.90;;;;;;5068640;28;20471;-51
2022/12/25 10:56:01;;;;;;;15.17;10.10;;;3.90;99.90;;;;;;5068876;28;20470;-50
2022/12/25 10:58:28;;;;;;;34.53;13.00;;;4.10;99.90;;;;;;5067625;28;20514;-50
2022/12/25 11:00:58;;;;;;;29.77;12.97;;;4.30;99.90;;;;;;5066860;28;20501;-51
2022/12/25 11:03:28;;;;;;;52.87;16.90;;;4.40;99.90;;;;;;5070942;28;20482;-50
2022/12/25 11:05:57;;;;;;;20.70;14.80;;;4.40;99.90;;;;;;5071223;28;20917;-50
2022/12/25 11:08:26;;;;;;;19.13;14.93;;;4.50;99.90;;;;;;5070795;28;20465;-50
2022/12/25 11:10:55;;;;;;;15.43;12.67;;;4.60;99.90;;;;;;5070483;28;20499;-50
2022/12/25 11:13:24;;;;;;;28.97;14.23;;;4.70;99.90;;;;;;5071006;28;20872;-51
2022/12/25 11:16:02;;;;;;;36.97;16.53;;;4.30;99.90;;;;;;5070206;28;20539;-50
2022/12/25 11:18:34;;;;;;;20.07;14.10;;;4.10;99.90;;;;;;5068500;28;20453;-49
2022/12/25 11:21:14;;;;;;;24.47;15.63;;;4.40;99.90;;;;;;5069308;28;20489;-51
2022/12/25 11:23:45;;;;;;;56.67;13.93;;;4.60;99.90;;;;;;5069522;28;20475;-51
2022/12/25 11:26:13;;;;;;;14.10;12.60;;;4.20;99.90;;;;;;5069390;28;20805;-50
2022/12/25 11:28:42;;;;;;;15.73;10.83;;;4.40;99.90;;;;;;5069025;28;20646;-50
2022/12/25 11:31:12;;;;;;;17.27;12.00;;;4.70;99.90;;;;;;5069638;28;20558;-50
2022/12/25 11:33:45;;;;;;;11.40;9.23;;;4.80;99.90;;;;;;5069205;28;20458;-52
2022/12/25 11:36:19;;;;;;;12.83;9.00;;;4.60;99.90;;;;;;5069905;28;20483;-50
2022/12/25 11:38:46;;;;;;;26.43;10.40;;;4.50;99.90;;;;;;5068002;28;20524;-51
2022/12/25 11:41:19;;;;;;;38.70;12.20;;;4.50;99.90;;;;;;5068652;28;20905;-50
2022/12/25 11:43:53;;;;;;;15.43;10.17;;;4.50;99.90;;;;;;5068923;28;20446;-50
2022/12/25 11:46:24;;;;;;;15.70;13.00;;;4.70;99.90;;;;;;5067224;28;20538;-50
2022/12/25 11:48:55;;;;;;;13.77;10.30;;;4.90;99.90;;;;;;5072728;28;20447;-50
2022/12/25 11:51:26;;;;;;;11.27;10.13;;;5.00;99.90;;;;;;5074395;28;20476;-51
2022/12/25 11:53:55;;;;;;;17.37;15.57;;;5.20;99.90;;;;;;5072511;28;20536;-52
2022/12/25 11:56:26;;;;;;;11.73;10.00;;;5.40;99.90;;;;;;5079276;28;20527;-50
2022/12/25 11:58:55;;;;;;;11.90;10.20;;;5.40;99.90;;;;;;5076066;28;20451;-50
2022/12/25 12:01:30;;;;;;;10.60;9.37;;;5.40;99.90;;;;;;5071706;28;20908;-51
2022/12/25 12:03:59;;;;;;;12.57;11.10;;;5.50;99.90;;;;;;5071034;28;20961;-51
2022/12/25 12:06:32;;;;;;;23.60;19.07;;;5.60;99.90;;;;;;5071768;28;20445;-51
2022/12/25 12:09:05;;;;;;;24.13;17.03;;;5.60;99.90;;;;;;5071727;28;20480;-50
2022/12/25 12:11:37;;;;;;;26.40;21.67;;;5.70;99.90;;;;;;5073071;28;20515;-50
2022/12/25 12:14:21;;;;;;;15.87;13.47;;;5.70;99.90;;;;;;5084120;28;20472;-50
2022/12/25 12:16:48;;;;;;;14.70;13.10;;;5.70;99.90;;;;;;5068534;28;20526;-51
2022/12/25 12:19:25;;;;;;;13.97;11.90;;;5.70;99.90;;;;;;5073108;28;20536;-50
2022/12/25 12:21:55;;;;;;;18.27;12.00;;;5.70;99.90;;;;;;5071902;28;20551;-51
2022/12/25 12:24:25;;;;;;;14.93;12.63;;;5.70;99.90;;;;;;5070925;28;20535;-52
2022/12/25 12:27:02;;;;;;;16.60;12.40;;;5.60;99.90;;;;;;5073567;28;20953;-50
2022/12/25 12:29:34;;;;;;;17.80;11.77;;;5.50;99.90;;;;;;5073202;28;20530;-52
2022/12/25 12:32:03;;;;;;;16.30;12.73;;;5.40;99.90;;;;;;5073429;28;20527;-50
2022/12/25 12:34:34;;;;;;;16.00;12.80;;;5.30;99.90;;;;;;5072915;28;20448;-52
2022/12/25 12:37:07;;;;;;;16.53;14.80;;;5.50;99.90;;;;;;5073478;28;20479;-49
2022/12/25 12:39:37;;;;;;;17.53;13.20;;;5.70;99.90;;;;;;5069285;28;20484;-50
2022/12/25 12:42:13;;;;;;;16.13;13.10;;;5.60;99.90;;;;;;5069218;28;20496;-51
2022/12/25 12:44:41;;;;;;;16.13;12.80;;;5.70;99.90;;;;;;5068612;28;20448;-50
2022/12/25 12:47:29;;;;;;;12.30;11.10;;;5.80;99.90;;;;;;5069159;28;20751;-51
2022/12/25 12:49:57;;;;;;;13.83;11.60;;;5.70;99.90;;;;;;5066648;28;21255;-49
2022/12/25 12:52:32;;;;;;;12.43;11.23;;;5.70;99.90;;;;;;5069572;28;20867;-50
2022/12/25 12:55:02;;;;;;;13.53;11.70;;;5.80;99.90;;;;;;5070014;28;20531;-50
2022/12/25 12:57:31;;;;;;;10.50;9.50;;;5.70;99.90;;;;;;5070547;28;20531;-50
2022/12/25 13:00:00;;;;;;;9.40;8.27;;;5.50;99.90;;;;;;5069894;28;20447;-50
2022/12/25 13:02:52;;;;;;;9.70;8.70;;;5.50;99.90;;;;;;5070886;28;20490;-51
2022/12/25 13:05:24;;;;;;;10.53;8.60;;;5.60;99.90;;;;;;5089318;28;20898;-50
2022/12/25 13:08:01;;;;;;;10.90;9.83;;;5.70;99.90;;;;;;5074619;28;20889;-50
2022/12/25 13:10:33;;;;;;;13.30;11.00;;;5.90;99.90;;;;;;5078915;28;20542;-51
2022/12/25 13:13:02;;;;;;;13.33;11.47;;;5.90;99.90;;;;;;5081858;28;20989;-52
2022/12/25 13:15:32;;;;;;;14.43;11.23;;;6.00;99.90;;;;;;5069144;28;20899;-49
2022/12/25 13:18:03;;;;;;;16.37;11.40;;;5.90;99.90;;;;;;5069926;28;20813;-50
2022/12/25 13:20:40;;;;;;;14.43;11.90;;;5.90;99.90;;;;;;5070355;28;20546;-51
2022/12/25 13:23:15;;;;;;;12.13;10.90;;;5.80;99.90;;;;;;5070164;28;20472;-50
2022/12/25 13:25:42;;;;;;;12.10;10.80;;;5.90;99.90;;;;;;5068631;28;20450;-53
2022/12/25 13:28:14;;;;;;;11.40;9.60;;;6.00;99.90;;;;;;5069189;28;21015;-50
2022/12/25 13:30:42;;;;;;;12.53;9.77;;;6.00;99.90;;;;;;5070288;28;20469;-49
2022/12/25 13:33:18;;;;;;;9.70;8.70;;;6.00;99.90;;;;;;5068133;28;20477;-52
2022/12/25 13:35:46;;;;;;;13.53;11.37;;;5.90;99.90;;;;;;5066957;28;20456;-54
2022/12/25 13:38:16;;;;;;;16.20;11.70;;;6.00;99.90;;;;;;5068603;28;20543;-49
2022/12/25 13:42:04;;;;;;;13.10;11.70;;;6.20;99.90;;;;;;5074142;28;20515;-53
2022/12/25 13:43:38;;;;;;;14.00;9.80;;;6.30;99.90;;;;;;5050986;28;20472;-52
2022/12/25 13:46:05;;;;;;;13.27;11.50;;;6.30;99.90;;;;;;5049376;28;20499;-49
2022/12/25 13:48:32;;;;;;;11.93;10.00;;;6.30;99.90;;;;;;5065234;28;20543;-52
2022/12/25 13:51:01;;;;;;;13.80;11.47;;;6.30;99.90;;;;;;5068365;28;20977;-50
2022/12/25 13:53:29;;;;;;;14.40;9.83;;;6.30;99.90;;;;;;5068108;28;20476;-51
2022/12/25 13:55:59;;;;;;;13.83;10.57;;;6.20;99.90;;;;;;5068439;28;20444;-50
2022/12/25 13:58:29;;;;;;;12.37;9.37;;;6.20;99.90;;;;;;5068065;28;20480;-50
2022/12/25 14:00:58;;;;;;;11.93;10.73;;;6.30;99.90;;;;;;5068460;28;20492;-51
2022/12/25 14:03:29;;;;;;;12.03;10.83;;;6.20;99.90;;;;;;5069469;28;20521;-52
2022/12/25 14:05:58;;;;;;;11.60;10.33;;;6.20;99.90;;;;;;5069626;28;20483;-50
2022/12/25 14:08:27;;;;;;;13.80;10.67;;;6.10;99.90;;;;;;5058156;28;20480;-50
2022/12/25 14:10:56;;;;;;;10.20;9.20;;;6.10;99.90;;;;;;5076690;28;20547;-51
2022/12/25 14:13:27;;;;;;;11.80;10.47;;;6.00;99.90;;;;;;5068693;28;20504;-51
2022/12/25 14:15:56;;;;;;;11.40;10.20;;;6.00;99.90;;;;;;5069433;28;20480;-50
2022/12/25 14:18:24;;;;;;;10.20;9.20;;;6.00;99.90;;;;;;5069020;28;20441;-50
2022/12/25 14:20:58;;;;;;;13.07;10.50;;;6.00;99.90;;;;;;5069235;28;20536;-50
2022/12/25 14:23:25;;;;;;;23.13;15.97;;;6.00;99.90;;;;;;5049071;28;20966;-50
2022/12/25 14:25:52;;;;;;;10.80;9.80;;;5.90;99.90;;;;;;5061644;28;21118;-52
2022/12/25 14:28:31;;;;;;;12.10;10.90;;;5.80;99.90;;;;;;5065176;28;20555;-50
2022/12/25 14:30:59;;;;;;;13.07;11.27;;;5.80;99.90;;;;;;5080919;28;20471;-52
2022/12/25 14:33:27;;;;;;;13.53;12.13;;;5.80;99.90;;;;;;5065803;28;20549;-51
2022/12/25 14:35:54;;;;;;;13.33;11.43;;;5.60;99.90;;;;;;5067021;28;20531;-49
2022/12/25 14:38:24;;;;;;;12.00;10.80;;;5.60;99.90;;;;;;5070485;28;20965;-51
2022/12/25 14:41:02;;;;;;;13.40;11.83;;;5.50;99.90;;;;;;5076062;28;20467;-51
2022/12/25 14:43:31;;;;;;;16.10;12.00;;;5.40;99.90;;;;;;5068114;28;20493;-49